Island Venture — WDG3765 — position and weather

sailwx.info

Track history (hours):
 
Tides and Currents Weather Stations Pressure Air Temp Water Temp Dewpoint Dewpoint Depression Visibility Wind Speed Wind Dir Waves Ship Positions

Island Venture

Owner: Island Tug & Barge Co, Seattle, WA. More information available from US FCC via Universal Licensing System and Coast Guard Vessel Documentation Center.

Last reported at 2015-Apr-21 02:24 UTC. Time now 2015-May-06 23:35 UTC.
Position N 48°31' W 122°39'.
Warning: this ship's position is 15 days out of date.

Type: Tug. MMSI: 367529420.

Date/timePositionNaut miles runAvg speedWind from/ knotsBaromVisibWave heightAir tempDewpointWater temp
2015-Apr-21 02:24N 48°31' W 122°39'0 0.0
2015-Apr-21 01:33N 48°31' W 122°39'8 7.8
2015-Apr-21 00:33N 48°24' W 122°44'11 9.1
2015-Apr-20 23:23N 48°13' W 122°47'6 7.1
2015-Apr-20 22:32N 48°08' W 122°41'8 8.0
2015-Apr-20 21:33N 48°01' W 122°37'10 9.5
2015-Apr-20 20:33N 47°53' W 122°29'1010.3
2015-Apr-20 19:33N 47°43' W 122°26'9 9.4
2015-Apr-20 18:33N 47°34' W 122°31'4 4.4
2015-Apr-20 17:33N 47°34' W 122°37'6 6.1
2015-Apr-20 16:33N 47°35' W 122°28'  
2015-Apr-18 12:08N 47°34' W 122°21'0 0.0
2015-Apr-18 11:33N 47°34' W 122°21'1 0.9
2015-Apr-18 10:33N 47°35' W 122°22'3 2.7
2015-Apr-18 09:33N 47°33' W 122°20'3 2.9
2015-Apr-18 08:33N 47°35' W 122°22'5 4.8
2015-Apr-18 07:32N 47°40' W 122°24'2 2.5
2015-Apr-18 06:33N 47°39' W 122°21'4 4.5
2015-Apr-18 05:33N 47°40' W 122°15'5 4.8
2015-Apr-18 04:33N 47°45' W 122°16'1 0.7
2015-Apr-18 03:33N 47°45' W 122°15'3 3.4
2015-Apr-18 02:33N 47°42' W 122°15'5 4.3
2015-Apr-18 01:29N 47°39' W 122°20'3 2.9
2015-Apr-18 00:31N 47°40' W 122°24'0 0.0
2015-Apr-17 23:32N 47°40' W 122°24'1 1.5
2015-Apr-17 22:34N 47°41' W 122°25'4 3.5
2015-Apr-17 21:31N 47°37' W 122°27'4 4.5
2015-Apr-17 20:33N 47°33' W 122°27'8 7.5
2015-Apr-17 19:32N 47°26' W 122°32'8 8.2
2015-Apr-17 18:32N 47°18' W 122°33'8 8.3
2015-Apr-17 17:33N 47°10' W 122°38'2 1.6
2015-Apr-17 16:15N 47°08' W 122°39'0 0.3
2015-Apr-17 15:05N 47°08' W 122°39'0 0.3
2015-Apr-17 14:25N 47°08' W 122°39'1 0.8
2015-Apr-17 13:32N 47°09' W 122°38'0 0.0
2015-Apr-17 12:32N 47°09' W 122°38'0 0.2
2015-Apr-17 11:29N 47°09' W 122°39'7 6.4
2015-Apr-17 10:23N 47°15' W 122°34'7 8.0
2015-Apr-17 09:34N 47°21' W 122°32'6 6.2
2015-Apr-17 08:34N 47°28' W 122°31'6 6.4
2015-Apr-17 07:33N 47°33' W 122°27'4 3.6
2015-Apr-17 06:33N 47°35' W 122°22'2 1.8
2015-Apr-17 05:33N 47°35' W 122°25'8 8.0
2015-Apr-17 04:32N 47°28' W 122°31'8 8.4
2015-Apr-17 03:33N 47°20' W 122°33'9 9.0
2015-Apr-17 02:33N 47°11' W 122°37'12 0.7
2015-Apr-16 10:08N 47°10' W 122°54'1 1.1
2015-Apr-16 09:34N 47°09' W 122°53'15 5.0
2015-Apr-16 06:30N 47°16' W 122°33'8 8.4
2015-Apr-16 05:34N 47°24' W 122°32'7 6.8
2015-Apr-16 04:33N 47°31' W 122°29'4 3.9
2015-Apr-16 03:33N 47°34' W 122°26'4 3.6
2015-Apr-16 02:33N 47°34' W 122°21'0 0.2
2015-Apr-16 01:33N 47°34' W 122°21'0 0.5
2015-Apr-16 00:33N 47°34' W 122°21'1 0.9
2015-Apr-15 23:33N 47°35' W 122°22'0 0.0
2015-Apr-15 22:33N 47°35' W 122°22'0 0.0
2015-Apr-15 21:33N 47°35' W 122°22'0 0.0
2015-Apr-15 20:34N 47°35' W 122°22'0 0.0
2015-Apr-15 19:34N 47°35' W 122°22'0 0.0
2015-Apr-15 18:33N 47°35' W 122°22'0 0.0
2015-Apr-15 17:33N 47°35' W 122°22'0 0.0
2015-Apr-15 16:33N 47°35' W 122°22'1 0.8
2015-Apr-15 15:33N 47°34' W 122°22'4 3.6
2015-Apr-15 14:33N 47°33' W 122°27'9 9.0
2015-Apr-15 13:33N 47°25' W 122°32'7 7.5
2015-Apr-15 12:34N 47°18' W 122°28'1 0.8
2015-Apr-15 11:33N 47°18' W 122°26'9 8.5
2015-Apr-15 10:33N 47°26' W 122°23'10 9.6
2015-Apr-15 09:33N 47°36' W 122°24'2 2.2
2015-Apr-15 08:33N 47°34' W 122°21'0 0.1
2015-Apr-15 07:33N 47°34' W 122°21'1 0.5
2015-Apr-15 06:33N 47°34' W 122°21'1 1.1
2015-Apr-15 05:30N 47°33' W 122°20'0 0.0
2015-Apr-15 04:33N 47°33' W 122°20'3 3.1
2015-Apr-15 03:34N 47°36' W 122°22'5 5.0
2015-Apr-15 02:33N 47°32' W 122°28'8 7.5
2015-Apr-15 01:34N 47°25' W 122°32'8 8.3
2015-Apr-15 00:34N 47°17' W 122°33'9 7.9
2015-Apr-14 23:24N 47°11' W 122°43'7 6.6
2015-Apr-14 22:24N 47°10' W 122°53'3 0.2
2015-Apr-14 09:30N 47°11' W 122°56'4 4.0
2015-Apr-14 08:27N 47°11' W 122°50'6 6.7
2015-Apr-14 07:31N 47°07' W 122°43'3 3.1
2015-Apr-14 06:26N 47°09' W 122°38'0 0.0
2015-Apr-14 05:19N 47°09' W 122°38'0 0.0
2015-Apr-14 03:12N 47°09' W 122°38'0 0.0
2015-Apr-14 02:24N 47°09' W 122°38'0 0.0
2015-Apr-14 01:13N 47°09' W 122°38'0 0.0
2015-Apr-14 00:21N 47°09' W 122°38'0 0.0
2015-Apr-13 23:23N 47°09' W 122°38'3 2.8
2015-Apr-13 22:18N 47°12' W 122°37'5 6.3
2015-Apr-13 21:32N 47°16' W 122°33'4 4.2
2015-Apr-13 20:33N 47°19' W 122°29'4 3.6
2015-Apr-13 19:32N 47°17' W 122°24'0 0.1
2015-Apr-13 18:20N 47°17' W 122°24'4 5.6
2015-Apr-13 17:33N 47°19' W 122°30'4 4.0
2015-Apr-13 16:33N 47°16' W 122°33'7 7.2
2015-Apr-13 15:31N 47°09' W 122°39'1 1.0
2015-Apr-13 14:30N 47°08' W 122°39'0 0.2
2015-Apr-13 13:32N 47°08' W 122°39'0 0.0
2015-Apr-13 12:25N 47°08' W 122°39'0 0.0
2015-Apr-13 11:33N 47°08' W 122°39'0 0.0
2015-Apr-13 10:24N 47°08' W 122°39'0 0.2
2015-Apr-13 09:34N 47°08' W 122°39'6 6.3
2015-Apr-13 08:33N 47°14' W 122°35'6 6.1
2015-Apr-13 07:34N 47°19' W 122°29'6 4.3
2015-Apr-13 06:17N 47°16' W 122°22'3 3.6
2015-Apr-13 05:32N 47°16' W 122°26'6 6.3
2015-Apr-13 04:33N 47°22' W 122°24'8 8.4
2015-Apr-13 03:33N 47°30' W 122°24'4 4.4
2015-Apr-13 02:33N 47°34' W 122°21'0 0.3
2015-Apr-13 01:34N 47°34' W 122°21'0 0.0
2015-Apr-12 23:05N 47°34' W 122°21'0 0.0
2015-Apr-12 22:32N 47°34' W 122°21'0 0.0
2015-Apr-12 21:33N 47°34' W 122°21'0 0.0
2015-Apr-12 20:33N 47°34' W 122°21'0 0.0
2015-Apr-12 19:33N 47°34' W 122°21'0 0.0
2015-Apr-12 18:33N 47°34' W 122°21'0 0.0
2015-Apr-12 17:32N 47°34' W 122°21'0 0.0
2015-Apr-12 16:33N 47°34' W 122°21'0 0.0
2015-Apr-12 15:33N 47°34' W 122°21'0 0.0
2015-Apr-12 14:33N 47°34' W 122°21'0 0.0
2015-Apr-12 13:33N 47°34' W 122°21'0 0.0
2015-Apr-12 12:33N 47°34' W 122°21'0 0.0
2015-Apr-12 11:33N 47°34' W 122°21'0 0.0
2015-Apr-12 10:32N 47°34' W 122°21'0 0.0
2015-Apr-12 09:11N 47°34' W 122°21'0 0.0
2015-Apr-12 08:33N 47°34' W 122°21'0 0.0
2015-Apr-12 07:33N 47°34' W 122°21'0 0.0
2015-Apr-12 06:28N 47°34' W 122°21'0 0.0
2015-Apr-12 05:28N 47°34' W 122°21'0 0.0
2015-Apr-12 04:33N 47°34' W 122°21'0 0.0
2015-Apr-12 03:33N 47°34' W 122°21'0 0.0
2015-Apr-12 02:19N 47°34' W 122°21'0 0.0
2015-Apr-12 01:33N 47°34' W 122°21'0 0.0
2015-Apr-12 00:33N 47°34' W 122°21'0 0.0
2015-Apr-11 23:32N 47°34' W 122°21'0 0.0
2015-Apr-11 22:33N 47°34' W 122°21'0 0.0
2015-Apr-11 21:33N 47°34' W 122°21'0 0.0
2015-Apr-11 20:33N 47°34' W 122°21'0 0.0
2015-Apr-11 19:33N 47°34' W 122°21'0 0.0
2015-Apr-11 18:33N 47°34' W 122°21'0 0.0
2015-Apr-11 17:33N 47°34' W 122°21'0 0.0
2015-Apr-11 16:33N 47°34' W 122°21'0 0.0
2015-Apr-11 15:33N 47°34' W 122°21'0 0.0
2015-Apr-11 14:33N 47°34' W 122°21'0 0.0
2015-Apr-11 13:33N 47°34' W 122°21'1 0.5
2015-Apr-11 12:33N 47°34' W 122°21'0 0.4
2015-Apr-11 11:33N 47°34' W 122°21'4 4.0
2015-Apr-11 10:34N 47°33' W 122°27'8 7.9
2015-Apr-11 09:34N 47°26' W 122°32'7 6.9
2015-Apr-11 08:34N 47°19' W 122°31'4 4.4
2015-Apr-11 07:34N 47°17' W 122°25'3 2.6
2015-Apr-11 06:34N 47°18' W 122°28'5 5.0
2015-Apr-11 05:33N 47°15' W 122°34'8 7.4
2015-Apr-11 04:29N 47°08' W 122°39'0 0.0
2015-Apr-11 03:33N 47°08' W 122°39'0 0.0
2015-Apr-11 02:30N 47°08' W 122°39'  
Track history (hours):
 
Tides and Currents Weather Stations Pressure Air Temp Water Temp Dewpoint Dewpoint Depression Visibility Wind Speed Wind Dir Waves Ship Positions

Island Venture

Owner: Island Tug & Barge Co, Seattle, WA. More information available from US FCC via Universal Licensing System and Coast Guard Vessel Documentation Center.

Last reported at 2015-Apr-21 02:24 UTC. Time now 2015-May-06 23:35 UTC.
Position N 48°31' W 122°39'.
Warning: this ship's position is 15 days out of date.

Type: Tug. MMSI: 367529420.

Date/timePositionNaut miles runAvg speedWind from/ knotsBaromVisibWave heightAir tempDewpointWater temp
2015-Apr-21 02:24N 48°31' W 122°39'0 0.0
2015-Apr-21 01:33N 48°31' W 122°39'8 7.8
2015-Apr-21 00:33N 48°24' W 122°44'11 9.1
2015-Apr-20 23:23N 48°13' W 122°47'6 7.1
2015-Apr-20 22:32N 48°08' W 122°41'8 8.0
2015-Apr-20 21:33N 48°01' W 122°37'10 9.5
2015-Apr-20 20:33N 47°53' W 122°29'1010.3
2015-Apr-20 19:33N 47°43' W 122°26'9 9.4
2015-Apr-20 18:33N 47°34' W 122°31'4 4.4
2015-Apr-20 17:33N 47°34' W 122°37'6 6.1
2015-Apr-20 16:33N 47°35' W 122°28'  
2015-Apr-18 12:08N 47°34' W 122°21'0 0.0
2015-Apr-18 11:33N 47°34' W 122°21'1 0.9
2015-Apr-18 10:33N 47°35' W 122°22'3 2.7
2015-Apr-18 09:33N 47°33' W 122°20'3 2.9
2015-Apr-18 08:33N 47°35' W 122°22'5 4.8
2015-Apr-18 07:32N 47°40' W 122°24'2 2.5
2015-Apr-18 06:33N 47°39' W 122°21'4 4.5
2015-Apr-18 05:33N 47°40' W 122°15'5 4.8
2015-Apr-18 04:33N 47°45' W 122°16'1 0.7
2015-Apr-18 03:33N 47°45' W 122°15'3 3.4
2015-Apr-18 02:33N 47°42' W 122°15'5 4.3
2015-Apr-18 01:29N 47°39' W 122°20'3 2.9
2015-Apr-18 00:31N 47°40' W 122°24'0 0.0
2015-Apr-17 23:32N 47°40' W 122°24'1 1.5
2015-Apr-17 22:34N 47°41' W 122°25'4 3.5
2015-Apr-17 21:31N 47°37' W 122°27'4 4.5
2015-Apr-17 20:33N 47°33' W 122°27'8 7.5
2015-Apr-17 19:32N 47°26' W 122°32'8 8.2
2015-Apr-17 18:32N 47°18' W 122°33'8 8.3
2015-Apr-17 17:33N 47°10' W 122°38'2 1.6
2015-Apr-17 16:15N 47°08' W 122°39'0 0.3
2015-Apr-17 15:05N 47°08' W 122°39'0 0.3
2015-Apr-17 14:25N 47°08' W 122°39'1 0.8
2015-Apr-17 13:32N 47°09' W 122°38'0 0.0
2015-Apr-17 12:32N 47°09' W 122°38'0 0.2
2015-Apr-17 11:29N 47°09' W 122°39'7 6.4
2015-Apr-17 10:23N 47°15' W 122°34'7 8.0
2015-Apr-17 09:34N 47°21' W 122°32'6 6.2
2015-Apr-17 08:34N 47°28' W 122°31'6 6.4
2015-Apr-17 07:33N 47°33' W 122°27'4 3.6
2015-Apr-17 06:33N 47°35' W 122°22'2 1.8
2015-Apr-17 05:33N 47°35' W 122°25'8 8.0
2015-Apr-17 04:32N 47°28' W 122°31'8 8.4
2015-Apr-17 03:33N 47°20' W 122°33'9 9.0
2015-Apr-17 02:33N 47°11' W 122°37'12 0.7
2015-Apr-16 10:08N 47°10' W 122°54'1 1.1
2015-Apr-16 09:34N 47°09' W 122°53'15 5.0
2015-Apr-16 06:30N 47°16' W 122°33'8 8.4
2015-Apr-16 05:34N 47°24' W 122°32'7 6.8
2015-Apr-16 04:33N 47°31' W 122°29'4 3.9
2015-Apr-16 03:33N 47°34' W 122°26'4 3.6
2015-Apr-16 02:33N 47°34' W 122°21'0 0.2
2015-Apr-16 01:33N 47°34' W 122°21'0 0.5
2015-Apr-16 00:33N 47°34' W 122°21'1 0.9
2015-Apr-15 23:33N 47°35' W 122°22'0 0.0
2015-Apr-15 22:33N 47°35' W 122°22'0 0.0
2015-Apr-15 21:33N 47°35' W 122°22'0 0.0
2015-Apr-15 20:34N 47°35' W 122°22'0 0.0
2015-Apr-15 19:34N 47°35' W 122°22'0 0.0
2015-Apr-15 18:33N 47°35' W 122°22'0 0.0
2015-Apr-15 17:33N 47°35' W 122°22'0 0.0
2015-Apr-15 16:33N 47°35' W 122°22'1 0.8
2015-Apr-15 15:33N 47°34' W 122°22'4 3.6
2015-Apr-15 14:33N 47°33' W 122°27'9 9.0
2015-Apr-15 13:33N 47°25' W 122°32'7 7.5
2015-Apr-15 12:34N 47°18' W 122°28'1 0.8
2015-Apr-15 11:33N 47°18' W 122°26'9 8.5
2015-Apr-15 10:33N 47°26' W 122°23'10 9.6
2015-Apr-15 09:33N 47°36' W 122°24'2 2.2
2015-Apr-15 08:33N 47°34' W 122°21'0 0.1
2015-Apr-15 07:33N 47°34' W 122°21'1 0.5
2015-Apr-15 06:33N 47°34' W 122°21'1 1.1
2015-Apr-15 05:30N 47°33' W 122°20'0 0.0
2015-Apr-15 04:33N 47°33' W 122°20'3 3.1
2015-Apr-15 03:34N 47°36' W 122°22'5 5.0
2015-Apr-15 02:33N 47°32' W 122°28'8 7.5
2015-Apr-15 01:34N 47°25' W 122°32'8 8.3
2015-Apr-15 00:34N 47°17' W 122°33'9 7.9
2015-Apr-14 23:24N 47°11' W 122°43'7 6.6
2015-Apr-14 22:24N 47°10' W 122°53'3 0.2
2015-Apr-14 09:30N 47°11' W 122°56'4 4.0
2015-Apr-14 08:27N 47°11' W 122°50'6 6.7
2015-Apr-14 07:31N 47°07' W 122°43'3 3.1
2015-Apr-14 06:26N 47°09' W 122°38'0 0.0
2015-Apr-14 05:19N 47°09' W 122°38'0 0.0
2015-Apr-14 03:12N 47°09' W 122°38'0 0.0
2015-Apr-14 02:24N 47°09' W 122°38'0 0.0
2015-Apr-14 01:13N 47°09' W 122°38'0 0.0
2015-Apr-14 00:21N 47°09' W 122°38'0 0.0
2015-Apr-13 23:23N 47°09' W 122°38'3 2.8
2015-Apr-13 22:18N 47°12' W 122°37'5 6.3
2015-Apr-13 21:32N 47°16' W 122°33'4 4.2
2015-Apr-13 20:33N 47°19' W 122°29'4 3.6
2015-Apr-13 19:32N 47°17' W 122°24'0 0.1
2015-Apr-13 18:20N 47°17' W 122°24'4 5.6
2015-Apr-13 17:33N 47°19' W 122°30'4 4.0
2015-Apr-13 16:33N 47°16' W 122°33'7 7.2
2015-Apr-13 15:31N 47°09' W 122°39'1 1.0
2015-Apr-13 14:30N 47°08' W 122°39'0 0.2
2015-Apr-13 13:32N 47°08' W 122°39'0 0.0
2015-Apr-13 12:25N 47°08' W 122°39'0 0.0
2015-Apr-13 11:33N 47°08' W 122°39'0 0.0
2015-Apr-13 10:24N 47°08' W 122°39'0 0.2
2015-Apr-13 09:34N 47°08' W 122°39'6 6.3
2015-Apr-13 08:33N 47°14' W 122°35'6 6.1
2015-Apr-13 07:34N 47°19' W 122°29'6 4.3
2015-Apr-13 06:17N 47°16' W 122°22'3 3.6
2015-Apr-13 05:32N 47°16' W 122°26'6 6.3
2015-Apr-13 04:33N 47°22' W 122°24'8 8.4
2015-Apr-13 03:33N 47°30' W 122°24'4 4.4
2015-Apr-13 02:33N 47°34' W 122°21'0 0.3
2015-Apr-13 01:34N 47°34' W 122°21'0 0.0
2015-Apr-12 23:05N 47°34' W 122°21'0 0.0
2015-Apr-12 22:32N 47°34' W 122°21'0 0.0
2015-Apr-12 21:33N 47°34' W 122°21'0 0.0
2015-Apr-12 20:33N 47°34' W 122°21'0 0.0
2015-Apr-12 19:33N 47°34' W 122°21'0 0.0
2015-Apr-12 18:33N 47°34' W 122°21'0 0.0
2015-Apr-12 17:32N 47°34' W 122°21'0 0.0
2015-Apr-12 16:33N 47°34' W 122°21'0 0.0
2015-Apr-12 15:33N 47°34' W 122°21'0 0.0
2015-Apr-12 14:33N 47°34' W 122°21'0 0.0
2015-Apr-12 13:33N 47°34' W 122°21'0 0.0
2015-Apr-12 12:33N 47°34' W 122°21'0 0.0
2015-Apr-12 11:33N 47°34' W 122°21'0 0.0
2015-Apr-12 10:32N 47°34' W 122°21'0 0.0
2015-Apr-12 09:11N 47°34' W 122°21'0 0.0
2015-Apr-12 08:33N 47°34' W 122°21'0 0.0
2015-Apr-12 07:33N 47°34' W 122°21'0 0.0
2015-Apr-12 06:28N 47°34' W 122°21'0 0.0
2015-Apr-12 05:28N 47°34' W 122°21'0 0.0
2015-Apr-12 04:33N 47°34' W 122°21'0 0.0
2015-Apr-12 03:33N 47°34' W 122°21'0 0.0
2015-Apr-12 02:19N 47°34' W 122°21'0 0.0
2015-Apr-12 01:33N 47°34' W 122°21'0 0.0
2015-Apr-12 00:33N 47°34' W 122°21'0 0.0
2015-Apr-11 23:32N 47°34' W 122°21'0 0.0
2015-Apr-11 22:33N 47°34' W 122°21'0 0.0
2015-Apr-11 21:33N 47°34' W 122°21'0 0.0
2015-Apr-11 20:33N 47°34' W 122°21'0 0.0
2015-Apr-11 19:33N 47°34' W 122°21'0 0.0
2015-Apr-11 18:33N 47°34' W 122°21'0 0.0
2015-Apr-11 17:33N 47°34' W 122°21'0 0.0
2015-Apr-11 16:33N 47°34' W 122°21'0 0.0
2015-Apr-11 15:33N 47°34' W 122°21'0 0.0
2015-Apr-11 14:33N 47°34' W 122°21'0 0.0
2015-Apr-11 13:33N 47°34' W 122°21'1 0.5
2015-Apr-11 12:33N 47°34' W 122°21'0 0.4
2015-Apr-11 11:33N 47°34' W 122°21'4 4.0
2015-Apr-11 10:34N 47°33' W 122°27'8 7.9
2015-Apr-11 09:34N 47°26' W 122°32'7 6.9
2015-Apr-11 08:34N 47°19' W 122°31'4 4.4
2015-Apr-11 07:34N 47°17' W 122°25'3 2.6
2015-Apr-11 06:34N 47°18' W 122°28'5 5.0
2015-Apr-11 05:33N 47°15' W 122°34'8 7.4
2015-Apr-11 04:29N 47°08' W 122°39'0 0.0
2015-Apr-11 03:33N 47°08' W 122°39'0 0.0
2015-Apr-11 02:30N 47°08' W 122°39'  

Dump ship's entire track history